sensor_id;sensor_type;location;lat;lon;timestamp;P1;durP1;ratioP1;P2;durP2;ratioP2
57667;SDS011;43499;52.366;12.912;2024-01-16T00:00:23;2.00;;;1.00;;
57667;SDS011;43499;52.366;12.912;2024-01-16T00:01:24;2.63;;;0.90;;
57667;SDS011;43499;52.366;12.912;2024-01-16T00:02:25;2.05;;;1.00;;
57667;SDS011;43499;52.366;12.912;2024-01-16T00:03:26;1.65;;;0.93;;
57667;SDS011;43499;52.366;12.912;2024-01-16T00:04:28;1.63;;;1.00;;
57667;SDS011;43499;52.366;12.912;2024-01-16T00:05:30;3.83;;;1.13;;
57667;SDS011;43499;52.366;12.912;2024-01-16T00:06:31;4.28;;;1.10;;
57667;SDS011;43499;52.366;12.912;2024-01-16T00:07:32;4.35;;;1.20;;
57667;SDS011;43499;52.366;12.912;2024-01-16T00:08:36;3.70;;;0.90;;
57667;SDS011;43499;52.366;12.912;2024-01-16T00:09:37;2.70;;;1.63;;
57667;SDS011;43499;52.366;12.912;2024-01-16T00:10:38;2.65;;;0.80;;
57667;SDS011;43499;52.366;12.912;2024-01-16T00:11:40;2.80;;;1.50;;
57667;SDS011;43499;52.366;12.912;2024-01-16T00:12:41;3.10;;;1.38;;
57667;SDS011;43499;52.366;12.912;2024-01-16T00:13:42;2.05;;;0.95;;
57667;SDS011;43499;52.366;12.912;2024-01-16T00:14:43;2.92;;;0.95;;
57667;SDS011;43499;52.366;12.912;2024-01-16T00:15:45;2.55;;;1.25;;
57667;SDS011;43499;52.366;12.912;2024-01-16T00:16:46;5.85;;;0.95;;
57667;SDS011;43499;52.366;12.912;2024-01-16T00:17:48;3.88;;;0.88;;
57667;SDS011;43499;52.366;12.912;2024-01-16T00:18:49;1.98;;;1.45;;
57667;SDS011;43499;52.366;12.912;2024-01-16T00:19:50;1.88;;;0.90;;
57667;SDS011;43499;52.366;12.912;2024-01-16T00:20:51;1.20;;;0.60;;
57667;SDS011;43499;52.366;12.912;2024-01-16T00:21:52;1.90;;;0.68;;
57667;SDS011;43499;52.366;12.912;2024-01-16T00:22:53;1.88;;;0.80;;
57667;SDS011;43499;52.366;12.912;2024-01-16T00:23:54;1.33;;;0.55;;
57667;SDS011;43499;52.366;12.912;2024-01-16T00:24:55;1.45;;;0.30;;
57667;SDS011;43499;52.366;12.912;2024-01-16T00:25:56;3.92;;;0.77;;
57667;SDS011;43499;52.366;12.912;2024-01-16T00:26:57;1.38;;;0.50;;
57667;SDS011;43499;52.366;12.912;2024-01-16T00:27:58;3.03;;;0.55;;
57667;SDS011;43499;52.366;12.912;2024-01-16T00:28:59;0.57;;;0.30;;
57667;SDS011;43499;52.366;12.912;2024-01-16T00:30:01;2.65;;;0.73;;
57667;SDS011;43499;52.366;12.912;2024-01-16T00:31:06;2.15;;;0.75;;
57667;SDS011;43499;52.366;12.912;2024-01-16T00:32:08;1.80;;;0.50;;
57667;SDS011;43499;52.366;12.912;2024-01-16T00:33:09;4.30;;;0.82;;
57667;SDS011;43499;52.366;12.912;2024-01-16T00:34:11;4.32;;;0.85;;
57667;SDS011;43499;52.366;12.912;2024-01-16T00:35:12;3.25;;;0.80;;
57667;SDS011;43499;52.366;12.912;2024-01-16T00:36:13;3.42;;;0.75;;
57667;SDS011;43499;52.366;12.912;2024-01-16T00:37:14;1.73;;;0.70;;
57667;SDS011;43499;52.366;12.912;2024-01-16T00:38:15;3.45;;;1.10;;
57667;SDS011;43499;52.366;12.912;2024-01-16T00:39:16;3.03;;;1.00;;
57667;SDS011;43499;52.366;12.912;2024-01-16T00:40:17;2.28;;;0.60;;
57667;SDS011;43499;52.366;12.912;2024-01-16T00:41:18;3.22;;;0.55;;
57667;SDS011;43499;52.366;12.912;2024-01-16T00:42:19;3.88;;;0.88;;
57667;SDS011;43499;52.366;12.912;2024-01-16T00:43:20;2.13;;;1.15;;
57667;SDS011;43499;52.366;12.912;2024-01-16T00:44:22;2.00;;;0.80;;
57667;SDS011;43499;52.366;12.912;2024-01-16T00:45:23;1.70;;;0.63;;
57667;SDS011;43499;52.366;12.912;2024-01-16T00:46:24;3.90;;;1.23;;
57667;SDS011;43499;52.366;12.912;2024-01-16T00:47:25;1.60;;;0.85;;
57667;SDS011;43499;52.366;12.912;2024-01-16T00:48:26;3.25;;;0.98;;
57667;SDS011;43499;52.366;12.912;2024-01-16T00:49:27;2.78;;;0.93;;
57667;SDS011;43499;52.366;12.912;2024-01-16T00:50:29;1.70;;;1.00;;
57667;SDS011;43499;52.366;12.912;2024-01-16T00:51:30;2.13;;;1.00;;
57667;SDS011;43499;52.366;12.912;2024-01-16T00:52:31;2.50;;;0.77;;
57667;SDS011;43499;52.366;12.912;2024-01-16T00:53:32;3.13;;;1.10;;
57667;SDS011;43499;52.366;12.912;2024-01-16T00:54:33;4.30;;;1.20;;
57667;SDS011;43499;52.366;12.912;2024-01-16T00:55:34;5.00;;;2.08;;
57667;SDS011;43499;52.366;12.912;2024-01-16T00:56:35;4.55;;;1.55;;
57667;SDS011;43499;52.366;12.912;2024-01-16T00:57:36;6.13;;;1.05;;
57667;SDS011;43499;52.366;12.912;2024-01-16T00:58:38;5.00;;;1.85;;
57667;SDS011;43499;52.366;12.912;2024-01-16T00:59:39;4.55;;;1.30;;
57667;SDS011;43499;52.366;12.912;2024-01-16T01:00:40;9.02;;;1.60;;
57667;SDS011;43499;52.366;12.912;2024-01-16T01:01:41;5.22;;;1.55;;
57667;SDS011;43499;52.366;12.912;2024-01-16T01:02:42;4.13;;;1.27;;
57667;SDS011;43499;52.366;12.912;2024-01-16T01:03:44;4.20;;;1.02;;
57667;SDS011;43499;52.366;12.912;2024-01-16T01:04:46;3.65;;;1.20;;
57667;SDS011;43499;52.366;12.912;2024-01-16T01:05:47;4.07;;;1.23;;
57667;SDS011;43499;52.366;12.912;2024-01-16T01:06:48;2.65;;;1.05;;
57667;SDS011;43499;52.366;12.912;2024-01-16T01:07:49;4.15;;;1.15;;
57667;SDS011;43499;52.366;12.912;2024-01-16T01:08:50;1.85;;;1.17;;
57667;SDS011;43499;52.366;12.912;2024-01-16T01:09:51;5.38;;;1.60;;
57667;SDS011;43499;52.366;12.912;2024-01-16T01:10:52;3.42;;;1.40;;
57667;SDS011;43499;52.366;12.912;2024-01-16T01:11:53;3.00;;;1.27;;
57667;SDS011;43499;52.366;12.912;2024-01-16T01:12:54;5.20;;;1.10;;
57667;SDS011;43499;52.366;12.912;2024-01-16T01:13:56;5.72;;;1.45;;
57667;SDS011;43499;52.366;12.912;2024-01-16T01:14:57;4.65;;;1.15;;
57667;SDS011;43499;52.366;12.912;2024-01-16T01:15:58;3.65;;;1.30;;
57667;SDS011;43499;52.366;12.912;2024-01-16T01:16:59;1.88;;;1.05;;
57667;SDS011;43499;52.366;12.912;2024-01-16T01:18:00;2.65;;;0.95;;
57667;SDS011;43499;52.366;12.912;2024-01-16T01:19:01;2.63;;;1.27;;
57667;SDS011;43499;52.366;12.912;2024-01-16T01:20:02;8.18;;;1.40;;
57667;SDS011;43499;52.366;12.912;2024-01-16T01:21:04;3.35;;;0.98;;
57667;SDS011;43499;52.366;12.912;2024-01-16T01:22:05;5.70;;;1.40;;
57667;SDS011;43499;52.366;12.912;2024-01-16T01:23:06;2.38;;;0.85;;
57667;SDS011;43499;52.366;12.912;2024-01-16T01:24:07;5.05;;;1.30;;
57667;SDS011;43499;52.366;12.912;2024-01-16T01:25:09;2.28;;;1.15;;
57667;SDS011;43499;52.366;12.912;2024-01-16T01:26:12;2.47;;;1.25;;
57667;SDS011;43499;52.366;12.912;2024-01-16T01:27:18;6.55;;;1.70;;
57667;SDS011;43499;52.366;12.912;2024-01-16T01:28:19;4.72;;;1.55;;
57667;SDS011;43499;52.366;12.912;2024-01-16T01:29:20;2.33;;;1.35;;
57667;SDS011;43499;52.366;12.912;2024-01-16T01:30:21;3.97;;;0.98;;
57667;SDS011;43499;52.366;12.912;2024-01-16T01:31:22;0.73;;;0.60;;
57667;SDS011;43499;52.366;12.912;2024-01-16T01:32:23;2.90;;;0.50;;
57667;SDS011;43499;52.366;12.912;2024-01-16T01:33:24;0.57;;;0.30;;
57667;SDS011;43499;52.366;12.912;2024-01-16T01:34:25;1.77;;;0.40;;
57667;SDS011;43499;52.366;12.912;2024-01-16T01:35:27;0.45;;;0.40;;
57667;SDS011;43499;52.366;12.912;2024-01-16T01:36:28;1.52;;;0.50;;
57667;SDS011;43499;52.366;12.912;2024-01-16T01:37:29;1.15;;;0.32;;
57667;SDS011;43499;52.366;12.912;2024-01-16T01:38:30;0.75;;;0.40;;
57667;SDS011;43499;52.366;12.912;2024-01-16T01:39:31;1.27;;;0.30;;
57667;SDS011;43499;52.366;12.912;2024-01-16T01:40:32;0.75;;;0.38;;
57667;SDS011;43499;52.366;12.912;2024-01-16T01:41:33;0.68;;;0.30;;
57667;SDS011;43499;52.366;12.912;2024-01-16T01:42:34;0.30;;;0.30;;
57667;SDS011;43499;52.366;12.912;2024-01-16T01:43:35;3.78;;;0.35;;
57667;SDS011;43499;52.366;12.912;2024-01-16T01:44:36;0.98;;;0.30;;
57667;SDS011;43499;52.366;12.912;2024-01-16T01:45:37;2.15;;;0.30;;
57667;SDS011;43499;52.366;12.912;2024-01-16T01:46:39;1.55;;;0.40;;
57667;SDS011;43499;52.366;12.912;2024-01-16T01:47:41;1.55;;;0.30;;
57667;SDS011;43499;52.366;12.912;2024-01-16T01:48:48;1.70;;;0.40;;
57667;SDS011;43499;52.366;12.912;2024-01-16T01:49:49;0.82;;;0.22;;
57667;SDS011;43499;52.366;12.912;2024-01-16T01:51:52;2.17;;;0.32;;
57667;SDS011;43499;52.366;12.912;2024-01-16T01:52:53;2.10;;;0.43;;
57667;SDS011;43499;52.366;12.912;2024-01-16T01:53:54;1.98;;;0.55;;
57667;SDS011;43499;52.366;12.912;2024-01-16T01:54:56;1.40;;;0.20;;
57667;SDS011;43499;52.366;12.912;2024-01-16T01:55:58;1.77;;;0.30;;
57667;SDS011;43499;52.366;12.912;2024-01-16T01:57:00;2.22;;;0.30;;
57667;SDS011;43499;52.366;12.912;2024-01-16T01:59:04;0.60;;;0.20;;
57667;SDS011;43499;52.366;12.912;2024-01-16T02:00:06;0.70;;;0.30;;
57667;SDS011;43499;52.366;12.912;2024-01-16T02:01:14;0.60;;;0.20;;
57667;SDS011;43499;52.366;12.912;2024-01-16T02:02:16;1.85;;;0.30;;
57667;SDS011;43499;52.366;12.912;2024-01-16T02:03:18;0.60;;;0.10;;
57667;SDS011;43499;52.366;12.912;2024-01-16T02:04:21;2.00;;;0.28;;
57667;SDS011;43499;52.366;12.912;2024-01-16T02:05:23;1.08;;;0.57;;
57667;SDS011;43499;52.366;12.912;2024-01-16T02:06:24;2.22;;;0.38;;
57667;SDS011;43499;52.366;12.912;2024-01-16T02:07:25;0.50;;;0.10;;
57667;SDS011;43499;52.366;12.912;2024-01-16T02:08:26;1.08;;;0.30;;
57667;SDS011;43499;52.366;12.912;2024-01-16T02:09:27;1.08;;;0.38;;
57667;SDS011;43499;52.366;12.912;2024-01-16T02:10:28;0.82;;;0.30;;
57667;SDS011;43499;52.366;12.912;2024-01-16T02:11:29;1.65;;;0.52;;
57667;SDS011;43499;52.366;12.912;2024-01-16T02:12:30;1.20;;;0.40;;
57667;SDS011;43499;52.366;12.912;2024-01-16T02:13:32;4.30;;;0.73;;
57667;SDS011;43499;52.366;12.912;2024-01-16T02:14:33;3.22;;;0.50;;
57667;SDS011;43499;52.366;12.912;2024-01-16T02:15:34;0.68;;;0.68;;
57667;SDS011;43499;52.366;12.912;2024-01-16T02:16:38;2.47;;;0.30;;
57667;SDS011;43499;52.366;12.912;2024-01-16T02:17:40;1.63;;;0.50;;
57667;SDS011;43499;52.366;12.912;2024-01-16T02:18:41;2.13;;;0.45;;
57667;SDS011;43499;52.366;12.912;2024-01-16T02:19:42;0.95;;;0.30;;
57667;SDS011;43499;52.366;12.912;2024-01-16T02:20:44;1.15;;;0.30;;
57667;SDS011;43499;52.366;12.912;2024-01-16T02:21:46;1.00;;;0.30;;
57667;SDS011;43499;52.366;12.912;2024-01-16T02:22:52;3.47;;;0.47;;
57667;SDS011;43499;52.366;12.912;2024-01-16T02:23:56;1.00;;;0.20;;
57667;SDS011;43499;52.366;12.912;2024-01-16T02:24:57;1.45;;;0.38;;
57667;SDS011;43499;52.366;12.912;2024-01-16T02:25:58;0.93;;;0.20;;
57667;SDS011;43499;52.366;12.912;2024-01-16T02:26:59;4.10;;;0.73;;
57667;SDS011;43499;52.366;12.912;2024-01-16T02:28:01;1.30;;;0.22;;
57667;SDS011;43499;52.366;12.912;2024-01-16T02:29:03;1.75;;;0.30;;
57667;SDS011;43499;52.366;12.912;2024-01-16T02:30:05;0.73;;;0.30;;
57667;SDS011;43499;52.366;12.912;2024-01-16T02:31:07;0.25;;;0.20;;
57667;SDS011;43499;52.366;12.912;2024-01-16T02:32:10;2.53;;;0.32;;
57667;SDS011;43499;52.366;12.912;2024-01-16T02:33:13;0.55;;;0.45;;
57667;SDS011;43499;52.366;12.912;2024-01-16T02:34:14;0.40;;;0.20;;
57667;SDS011;43499;52.366;12.912;2024-01-16T02:35:15;1.27;;;0.40;;
57667;SDS011;43499;52.366;12.912;2024-01-16T02:36:17;1.10;;;0.20;;
57667;SDS011;43499;52.366;12.912;2024-01-16T02:37:18;1.85;;;0.30;;
57667;SDS011;43499;52.366;12.912;2024-01-16T02:38:20;4.00;;;0.30;;
57667;SDS011;43499;52.366;12.912;2024-01-16T02:39:21;0.55;;;0.30;;
57667;SDS011;43499;52.366;12.912;2024-01-16T02:40:22;0.40;;;0.20;;
57667;SDS011;43499;52.366;12.912;2024-01-16T02:41:23;1.33;;;0.50;;
57667;SDS011;43499;52.366;12.912;2024-01-16T02:42:24;4.32;;;0.30;;
57667;SDS011;43499;52.366;12.912;2024-01-16T02:43:25;1.92;;;0.52;;
57667;SDS011;43499;52.366;12.912;2024-01-16T02:44:27;1.48;;;0.20;;
57667;SDS011;43499;52.366;12.912;2024-01-16T02:45:28;1.10;;;0.45;;
57667;SDS011;43499;52.366;12.912;2024-01-16T02:46:29;1.10;;;0.40;;
57667;SDS011;43499;52.366;12.912;2024-01-16T02:47:30;1.00;;;0.30;;
57667;SDS011;43499;52.366;12.912;2024-01-16T02:48:31;0.30;;;0.20;;
57667;SDS011;43499;52.366;12.912;2024-01-16T02:49:32;1.77;;;0.17;;
57667;SDS011;43499;52.366;12.912;2024-01-16T02:50:34;0.55;;;0.30;;
57667;SDS011;43499;52.366;12.912;2024-01-16T02:51:35;3.13;;;0.30;;
57667;SDS011;43499;52.366;12.912;2024-01-16T02:52:36;0.40;;;0.20;;
57667;SDS011;43499;52.366;12.912;2024-01-16T02:53:37;2.05;;;0.30;;
57667;SDS011;43499;52.366;12.912;2024-01-16T02:54:38;1.05;;;0.22;;
57667;SDS011;43499;52.366;12.912;2024-01-16T02:55:39;1.65;;;0.40;;
57667;SDS011;43499;52.366;12.912;2024-01-16T02:56:40;0.93;;;0.20;;
57667;SDS011;43499;52.366;12.912;2024-01-16T02:57:41;2.00;;;0.40;;
57667;SDS011;43499;52.366;12.912;2024-01-16T02:58:42;0.28;;;0.20;;
57667;SDS011;43499;52.366;12.912;2024-01-16T02:59:43;1.02;;;0.43;;
57667;SDS011;43499;52.366;12.912;2024-01-16T03:00:45;3.17;;;0.40;;
57667;SDS011;43499;52.366;12.912;2024-01-16T03:01:46;2.97;;;0.82;;
57667;SDS011;43499;52.366;12.912;2024-01-16T03:02:47;0.93;;;0.22;;
57667;SDS011;43499;52.366;12.912;2024-01-16T03:03:48;1.58;;;0.30;;
57667;SDS011;43499;52.366;12.912;2024-01-16T03:04:49;1.85;;;0.28;;
57667;SDS011;43499;52.366;12.912;2024-01-16T03:05:50;2.65;;;0.50;;
57667;SDS011;43499;52.366;12.912;2024-01-16T03:06:51;1.75;;;0.40;;
57667;SDS011;43499;52.366;12.912;2024-01-16T03:07:52;2.22;;;0.45;;
57667;SDS011;43499;52.366;12.912;2024-01-16T03:08:53;2.80;;;0.30;;
57667;SDS011;43499;52.366;12.912;2024-01-16T03:09:55;1.83;;;0.40;;
57667;SDS011;43499;52.366;12.912;2024-01-16T03:10:56;1.02;;;0.43;;
57667;SDS011;43499;52.366;12.912;2024-01-16T03:12:59;2.97;;;0.75;;
57667;SDS011;43499;52.366;12.912;2024-01-16T03:14:00;1.63;;;0.47;;
57667;SDS011;43499;52.366;12.912;2024-01-16T03:15:01;3.33;;;0.60;;
57667;SDS011;43499;52.366;12.912;2024-01-16T03:16:06;1.30;;;0.40;;
57667;SDS011;43499;52.366;12.912;2024-01-16T03:17:07;3.33;;;0.43;;
57667;SDS011;43499;52.366;12.912;2024-01-16T03:18:08;3.40;;;0.50;;
57667;SDS011;43499;52.366;12.912;2024-01-16T03:19:09;0.52;;;0.32;;
57667;SDS011;43499;52.366;12.912;2024-01-16T03:20:12;2.22;;;0.52;;
57667;SDS011;43499;52.366;12.912;2024-01-16T03:21:13;1.88;;;0.30;;
57667;SDS011;43499;52.366;12.912;2024-01-16T03:22:15;2.20;;;0.38;;
57667;SDS011;43499;52.366;12.912;2024-01-16T03:23:16;1.85;;;0.30;;
57667;SDS011;43499;52.366;12.912;2024-01-16T03:24:17;1.25;;;0.40;;
57667;SDS011;43499;52.366;12.912;2024-01-16T03:25:18;0.75;;;0.30;;
57667;SDS011;43499;52.366;12.912;2024-01-16T03:26:19;0.93;;;0.32;;
57667;SDS011;43499;52.366;12.912;2024-01-16T03:27:20;1.98;;;0.47;;
57667;SDS011;43499;52.366;12.912;2024-01-16T03:28:21;0.47;;;0.17;;
57667;SDS011;43499;52.366;12.912;2024-01-16T03:29:22;0.30;;;0.20;;
57667;SDS011;43499;52.366;12.912;2024-01-16T03:30:23;0.85;;;0.22;;
57667;SDS011;43499;52.366;12.912;2024-01-16T03:31:24;1.88;;;0.30;;
57667;SDS011;43499;52.366;12.912;2024-01-16T03:32:25;0.50;;;0.30;;
57667;SDS011;43499;52.366;12.912;2024-01-16T03:33:26;2.10;;;0.20;;
57667;SDS011;43499;52.366;12.912;2024-01-16T03:34:28;2.17;;;0.40;;
57667;SDS011;43499;52.366;12.912;2024-01-16T03:35:30;0.68;;;0.30;;
57667;SDS011;43499;52.366;12.912;2024-01-16T03:36:31;0.32;;;0.30;;
57667;SDS011;43499;52.366;12.912;2024-01-16T03:37:32;3.13;;;0.30;;
57667;SDS011;43499;52.366;12.912;2024-01-16T03:38:34;2.35;;;0.22;;
57667;SDS011;43499;52.366;12.912;2024-01-16T03:39:36;2.92;;;0.32;;
57667;SDS011;43499;52.366;12.912;2024-01-16T03:40:37;1.80;;;0.60;;
57667;SDS011;43499;52.366;12.912;2024-01-16T03:41:39;0.70;;;0.10;;
57667;SDS011;43499;52.366;12.912;2024-01-16T03:42:40;1.35;;;0.28;;
57667;SDS011;43499;52.366;12.912;2024-01-16T03:43:41;3.22;;;0.25;;
57667;SDS011;43499;52.366;12.912;2024-01-16T03:44:42;0.82;;;0.30;;
57667;SDS011;43499;52.366;12.912;2024-01-16T03:45:44;5.90;;;1.08;;
57667;SDS011;43499;52.366;12.912;2024-01-16T03:46:45;0.95;;;0.10;;
57667;SDS011;43499;52.366;12.912;2024-01-16T03:47:46;0.50;;;0.20;;
57667;SDS011;43499;52.366;12.912;2024-01-16T03:48:47;3.33;;;0.50;;
57667;SDS011;43499;52.366;12.912;2024-01-16T03:49:48;2.17;;;0.25;;
57667;SDS011;43499;52.366;12.912;2024-01-16T03:50:49;1.13;;;0.17;;
57667;SDS011;43499;52.366;12.912;2024-01-16T03:51:51;2.88;;;0.47;;
57667;SDS011;43499;52.366;12.912;2024-01-16T03:52:52;1.10;;;0.40;;
57667;SDS011;43499;52.366;12.912;2024-01-16T03:53:53;0.70;;;0.40;;
57667;SDS011;43499;52.366;12.912;2024-01-16T03:54:54;1.23;;;0.25;;
57667;SDS011;43499;52.366;12.912;2024-01-16T03:55:55;0.30;;;0.30;;
57667;SDS011;43499;52.366;12.912;2024-01-16T03:56:56;3.58;;;0.30;;
57667;SDS011;43499;52.366;12.912;2024-01-16T03:57:57;3.60;;;0.57;;
57667;SDS011;43499;52.366;12.912;2024-01-16T03:58:58;2.83;;;0.30;;
57667;SDS011;43499;52.366;12.912;2024-01-16T03:59:59;0.60;;;0.20;;
57667;SDS011;43499;52.366;12.912;2024-01-16T04:01:00;2.03;;;0.52;;
57667;SDS011;43499;52.366;12.912;2024-01-16T04:02:01;2.47;;;0.50;;
57667;SDS011;43499;52.366;12.912;2024-01-16T04:03:04;0.80;;;0.22;;
57667;SDS011;43499;52.366;12.912;2024-01-16T04:04:05;1.80;;;0.30;;
57667;SDS011;43499;52.366;12.912;2024-01-16T04:05:07;4.03;;;0.38;;
57667;SDS011;43499;52.366;12.912;2024-01-16T04:06:17;0.50;;;0.30;;
57667;SDS011;43499;52.366;12.912;2024-01-16T04:07:19;1.35;;;0.13;;
57667;SDS011;43499;52.366;12.912;2024-01-16T04:08:20;2.20;;;0.30;;
57667;SDS011;43499;52.366;12.912;2024-01-16T04:09:21;1.40;;;0.60;;
57667;SDS011;43499;52.366;12.912;2024-01-16T04:10:22;2.67;;;0.40;;
57667;SDS011;43499;52.366;12.912;2024-01-16T04:11:23;1.80;;;0.32;;
57667;SDS011;43499;52.366;12.912;2024-01-16T04:12:24;3.05;;;0.35;;
57667;SDS011;43499;52.366;12.912;2024-01-16T04:13:26;1.20;;;0.28;;
57667;SDS011;43499;52.366;12.912;2024-01-16T04:14:27;1.27;;;0.47;;
57667;SDS011;43499;52.366;12.912;2024-01-16T04:15:28;1.45;;;0.90;;
57667;SDS011;43499;52.366;12.912;2024-01-16T04:16:29;1.33;;;0.40;;
57667;SDS011;43499;52.366;12.912;2024-01-16T04:17:30;2.10;;;0.52;;
57667;SDS011;43499;52.366;12.912;2024-01-16T04:18:35;0.38;;;0.30;;
57667;SDS011;43499;52.366;12.912;2024-01-16T04:19:40;0.90;;;0.63;;
57667;SDS011;43499;52.366;12.912;2024-01-16T04:20:41;2.47;;;0.40;;
57667;SDS011;43499;52.366;12.912;2024-01-16T04:21:42;2.45;;;0.38;;
57667;SDS011;43499;52.366;12.912;2024-01-16T04:22:44;2.25;;;0.22;;
57667;SDS011;43499;52.366;12.912;2024-01-16T04:23:46;0.43;;;0.30;;
57667;SDS011;43499;52.366;12.912;2024-01-16T04:24:47;2.88;;;0.40;;
57667;SDS011;43499;52.366;12.912;2024-01-16T04:25:48;1.42;;;0.32;;
57667;SDS011;43499;52.366;12.912;2024-01-16T04:26:49;0.73;;;0.30;;
57667;SDS011;43499;52.366;12.912;2024-01-16T04:28:52;5.53;;;0.28;;
57667;SDS011;43499;52.366;12.912;2024-01-16T04:29:53;1.05;;;0.40;;
57667;SDS011;43499;52.366;12.912;2024-01-16T04:30:54;3.17;;;0.40;;
57667;SDS011;43499;52.366;12.912;2024-01-16T04:31:56;0.98;;;0.43;;
57667;SDS011;43499;52.366;12.912;2024-01-16T04:32:57;2.05;;;0.43;;
57667;SDS011;43499;52.366;12.912;2024-01-16T04:33:58;0.40;;;0.35;;
57667;SDS011;43499;52.366;12.912;2024-01-16T04:34:59;2.55;;;0.50;;
57667;SDS011;43499;52.366;12.912;2024-01-16T04:36:00;1.55;;;0.30;;
57667;SDS011;43499;52.366;12.912;2024-01-16T04:37:01;1.30;;;0.30;;
57667;SDS011;43499;52.366;12.912;2024-01-16T04:38:04;1.20;;;0.43;;
57667;SDS011;43499;52.366;12.912;2024-01-16T04:39:05;4.10;;;0.52;;
57667;SDS011;43499;52.366;12.912;2024-01-16T04:40:06;3.58;;;0.70;;
57667;SDS011;43499;52.366;12.912;2024-01-16T04:41:08;3.55;;;0.38;;
57667;SDS011;43499;52.366;12.912;2024-01-16T04:42:09;1.73;;;0.30;;
57667;SDS011;43499;52.366;12.912;2024-01-16T04:43:10;1.30;;;0.70;;
57667;SDS011;43499;52.366;12.912;2024-01-16T04:44:11;0.70;;;0.30;;
57667;SDS011;43499;52.366;12.912;2024-01-16T04:45:12;0.73;;;0.38;;
57667;SDS011;43499;52.366;12.912;2024-01-16T04:46:14;0.63;;;0.43;;
57667;SDS011;43499;52.366;12.912;2024-01-16T04:47:15;1.38;;;0.22;;
57667;SDS011;43499;52.366;12.912;2024-01-16T04:48:16;1.35;;;0.32;;
57667;SDS011;43499;52.366;12.912;2024-01-16T04:49:17;2.72;;;0.30;;
57667;SDS011;43499;52.366;12.912;2024-01-16T04:50:18;4.85;;;0.63;;
57667;SDS011;43499;52.366;12.912;2024-01-16T04:51:19;0.57;;;0.47;;
57667;SDS011;43499;52.366;12.912;2024-01-16T04:52:21;1.45;;;0.50;;
57667;SDS011;43499;52.366;12.912;2024-01-16T04:53:22;1.00;;;0.28;;
57667;SDS011;43499;52.366;12.912;2024-01-16T04:54:23;3.97;;;0.77;;
57667;SDS011;43499;52.366;12.912;2024-01-16T04:55:24;3.42;;;0.98;;
57667;SDS011;43499;52.366;12.912;2024-01-16T04:56:25;0.73;;;0.40;;
57667;SDS011;43499;52.366;12.912;2024-01-16T04:57:26;0.98;;;0.30;;
57667;SDS011;43499;52.366;12.912;2024-01-16T04:58:27;1.52;;;0.60;;
57667;SDS011;43499;52.366;12.912;2024-01-16T04:59:28;4.68;;;0.82;;
57667;SDS011;43499;52.366;12.912;2024-01-16T05:00:31;1.58;;;0.30;;
57667;SDS011;43499;52.366;12.912;2024-01-16T05:01:32;5.60;;;0.77;;
57667;SDS011;43499;52.366;12.912;2024-01-16T05:02:33;4.05;;;0.70;;
57667;SDS011;43499;52.366;12.912;2024-01-16T05:03:34;0.98;;;0.50;;
57667;SDS011;43499;52.366;12.912;2024-01-16T05:04:38;1.17;;;0.50;;
57667;SDS011;43499;52.366;12.912;2024-01-16T05:05:40;2.25;;;0.70;;
57667;SDS011;43499;52.366;12.912;2024-01-16T05:06:41;1.85;;;0.52;;
57667;SDS011;43499;52.366;12.912;2024-01-16T05:07:42;3.15;;;0.60;;
57667;SDS011;43499;52.366;12.912;2024-01-16T05:08:43;1.58;;;0.85;;
57667;SDS011;43499;52.366;12.912;2024-01-16T05:09:44;1.00;;;0.55;;
57667;SDS011;43499;52.366;12.912;2024-01-16T05:10:45;1.27;;;0.50;;
57667;SDS011;43499;52.366;12.912;2024-01-16T05:11:47;2.17;;;0.68;;
57667;SDS011;43499;52.366;12.912;2024-01-16T05:12:48;1.08;;;0.40;;
57667;SDS011;43499;52.366;12.912;2024-01-16T05:13:49;1.95;;;0.75;;
57667;SDS011;43499;52.366;12.912;2024-01-16T05:14:50;1.10;;;0.57;;
57667;SDS011;43499;52.366;12.912;2024-01-16T05:15:51;1.95;;;0.68;;
57667;SDS011;43499;52.366;12.912;2024-01-16T05:16:52;4.15;;;1.02;;
57667;SDS011;43499;52.366;12.912;2024-01-16T05:17:53;3.15;;;0.50;;
57667;SDS011;43499;52.366;12.912;2024-01-16T05:18:54;1.48;;;0.98;;
57667;SDS011;43499;52.366;12.912;2024-01-16T05:19:55;1.02;;;0.70;;
57667;SDS011;43499;52.366;12.912;2024-01-16T05:20:57;0.85;;;0.43;;
57667;SDS011;43499;52.366;12.912;2024-01-16T05:21:58;0.70;;;0.57;;
57667;SDS011;43499;52.366;12.912;2024-01-16T05:22:59;2.53;;;0.47;;
57667;SDS011;43499;52.366;12.912;2024-01-16T05:24:00;2.60;;;0.50;;
57667;SDS011;43499;52.366;12.912;2024-01-16T05:25:02;2.17;;;0.70;;
57667;SDS011;43499;52.366;12.912;2024-01-16T05:26:03;1.92;;;0.85;;
57667;SDS011;43499;52.366;12.912;2024-01-16T05:27:04;3.22;;;0.50;;
57667;SDS011;43499;52.366;12.912;2024-01-16T05:28:05;2.15;;;0.75;;
57667;SDS011;43499;52.366;12.912;2024-01-16T05:29:06;1.27;;;0.50;;
57667;SDS011;43499;52.366;12.912;2024-01-16T05:30:07;4.88;;;0.88;;
57667;SDS011;43499;52.366;12.912;2024-01-16T05:31:10;2.28;;;0.82;;
57667;SDS011;43499;52.366;12.912;2024-01-16T05:32:13;4.10;;;0.70;;
57667;SDS011;43499;52.366;12.912;2024-01-16T05:33:14;0.93;;;0.50;;
57667;SDS011;43499;52.366;12.912;2024-01-16T05:34:15;2.00;;;0.82;;
57667;SDS011;43499;52.366;12.912;2024-01-16T05:35:16;4.45;;;0.98;;
57667;SDS011;43499;52.366;12.912;2024-01-16T05:36:18;4.57;;;1.10;;
57667;SDS011;43499;52.366;12.912;2024-01-16T05:37:19;3.00;;;1.20;;
57667;SDS011;43499;52.366;12.912;2024-01-16T05:38:20;3.40;;;1.05;;
57667;SDS011;43499;52.366;12.912;2024-01-16T05:39:21;2.95;;;1.33;;
57667;SDS011;43499;52.366;12.912;2024-01-16T05:40:24;2.05;;;0.82;;
57667;SDS011;43499;52.366;12.912;2024-01-16T05:41:26;2.47;;;1.63;;
57667;SDS011;43499;52.366;12.912;2024-01-16T05:42:27;4.07;;;1.00;;
57667;SDS011;43499;52.366;12.912;2024-01-16T05:43:28;3.00;;;0.80;;
57667;SDS011;43499;52.366;12.912;2024-01-16T05:44:30;3.63;;;0.77;;
57667;SDS011;43499;52.366;12.912;2024-01-16T05:45:31;6.40;;;1.17;;
57667;SDS011;43499;52.366;12.912;2024-01-16T05:46:32;3.90;;;0.68;;
57667;SDS011;43499;52.366;12.912;2024-01-16T05:47:33;2.42;;;0.68;;
57667;SDS011;43499;52.366;12.912;2024-01-16T05:48:34;2.45;;;0.77;;
57667;SDS011;43499;52.366;12.912;2024-01-16T05:49:35;2.50;;;0.88;;
57667;SDS011;43499;52.366;12.912;2024-01-16T05:50:37;2.58;;;0.80;;
57667;SDS011;43499;52.366;12.912;2024-01-16T05:51:38;1.85;;;1.35;;
57667;SDS011;43499;52.366;12.912;2024-01-16T05:52:39;4.07;;;1.30;;
57667;SDS011;43499;52.366;12.912;2024-01-16T05:53:41;4.45;;;1.08;;
57667;SDS011;43499;52.366;12.912;2024-01-16T05:54:42;2.78;;;1.35;;
57667;SDS011;43499;52.366;12.912;2024-01-16T05:55:43;2.67;;;0.82;;
57667;SDS011;43499;52.366;12.912;2024-01-16T05:56:44;1.95;;;1.15;;
57667;SDS011;43499;52.366;12.912;2024-01-16T05:57:46;1.27;;;1.00;;
57667;SDS011;43499;52.366;12.912;2024-01-16T05:58:47;2.35;;;1.10;;
57667;SDS011;43499;52.366;12.912;2024-01-16T05:59:48;3.83;;;1.42;;
57667;SDS011;43499;52.366;12.912;2024-01-16T06:00:49;4.85;;;1.40;;
57667;SDS011;43499;52.366;12.912;2024-01-16T06:01:50;5.07;;;1.60;;
57667;SDS011;43499;52.366;12.912;2024-01-16T06:02:51;3.15;;;1.40;;
57667;SDS011;43499;52.366;12.912;2024-01-16T06:03:52;4.75;;;1.52;;
57667;SDS011;43499;52.366;12.912;2024-01-16T06:04:53;2.28;;;1.02;;
57667;SDS011;43499;52.366;12.912;2024-01-16T06:05:54;4.18;;;1.88;;
57667;SDS011;43499;52.366;12.912;2024-01-16T06:06:55;2.58;;;1.38;;
57667;SDS011;43499;52.366;12.912;2024-01-16T06:07:56;5.30;;;1.60;;